This is the latest recevied weather packets stored in our database for station/object SQ6XL-13. If no packets are shown the sender has not sent any weather packets the latest 1 day(s).
| Time | Temp. | Humidity | Pressure | Rain* | Wind** | Luminosity | Snow |
|---|---|---|---|---|---|---|---|
| 1778037282 | 11.67° C | 89% | 1005.4 hPa | 0 mm | - | - | - |
| 1778036702 | 11.67° C | 89% | 1005.6 hPa | 0 mm | - | - | - |
| 1778036137 | 11.67° C | 88% | 1005.6 hPa | 0 mm | - | - | - |
| 1778035577 | 11.67° C | 88% | 1005.6 hPa | 0 mm | - | - | - |
| 1778034997 | 12.22° C | 86% | 1005.8 hPa | 0 mm | - | - | - |
| 1778034442 | 12.22° C | 84% | 1005.9 hPa | 0 mm | - | - | - |
| 1778033952 | 12.22° C | 82% | 1006 hPa | 0 mm | - | - | - |
| 1778033367 | 12.78° C | 81% | 1006.1 hPa | 0 mm | - | - | - |
| 1778032767 | 13.33° C | 79% | 1005.9 hPa | 0 mm | - | - | - |
| 1778032197 | 13.33° C | 75% | 1005.9 hPa | 0 mm | - | - | - |
| 1778031617 | 13.89° C | 72% | 1005.8 hPa | 0 mm | - | - | - |
| 1778031057 | 14.44° C | 72% | 1005.8 hPa | 0 mm | - | - | - |
| 1778030552 | 14.44° C | 71% | 1005.7 hPa | 0 mm | - | - | - |
| 1778029987 | 15° C | 70% | 1005.9 hPa | 0 mm | - | - | - |
| 1778029467 | 14.44° C | 70% | 1005.8 hPa | 0 mm | - | - | - |
| 1778028477 | 14.44° C | 71% | 1005.8 hPa | 0 mm | - | - | - |
| 1778027938 | 14.44° C | 72% | 1005.8 hPa | 0 mm | - | - | - |
| 1778027397 | 13.89° C | 74% | 1005.9 hPa | 0 mm | - | - | - |
| 1778026877 | 13.89° C | 74% | 1006 hPa | 0 mm | - | - | - |
| 1778026327 | 13.89° C | 77% | 1006.1 hPa | 0 mm | - | - | - |
| 1778025777 | 12.78° C | 84% | 1006.3 hPa | 0 mm | - | - | - |
| 1778024712 | 12.22° C | 92% | 1006.2 hPa | 0 mm | - | - | - |
| 1778024172 | 12.22° C | 92% | 1006 hPa | 0 mm | - | - | - |
| 1778023597 | 12.22° C | 92% | 1006.1 hPa | 0 mm | - | - | - |
| 1778023067 | 12.22° C | 91% | 1006.1 hPa | 0 mm | - | - | - |
* Rain latest hour (hover to see other rain measurements)
** Current wind speed in m/s (hover to see current wind gust speed)